Terminal Aerodrome Forecast
Issued by NWS Topeka, KS

Home | Current Version | Previous Version | Text Only | Print | Product List | Glossary Off
Versions: 1 2 3 4 5 6 7 8 9 10 11 12 13 14 15 16 17 18 19 20 21 22

000
FTUS43 KTOP 192300
TAFTOP
TAF
KTOP 192324Z 2000/2024 20002KT 5SM BR OVC013
     FM200900 VRB03KT 3SM BR BKN008
     FM201700 20005KT P6SM BKN015=

USA.gov is the U.S. government's official web portal to all federal, state and local government web resources and services.